Terminal Aerodrome Forecast
Issued by NWS Raleigh/Durham, NC

Home | Current Version | Previous Version | Text Only | Print | Product List | Glossary On
Versions: 1 2 3 4 5 6 7 8 9 10 11 12 13 14 15 16 17 18 19 20 21 22 23 24 25 26 27 28 29 30 31 32
000
FTUS42 KRAH 281135
TAFRDU
TAF
KRDU 281135Z 2812/2912 22007KT P6SM -RA FEW015 BKN060 OVC100
      TEMPO 2815/2818 6SM -RA BR BKN012 OVC020
     FM282000 24008KT P6SM SCT020 BKN035
     FM290600 35005KT 6SM -RA OVC025=

USA.gov is the U.S. government's official web portal to all federal, state and local government web resources and services.